Time;durP1;ratioP1;P1;durP2;ratioP2;P2;SDS_P1;SDS_P2;PMS_P1;PMS_P2;Temp;Humidity;BMP_temperature;BMP_pressure;BME280_temperature;BME280_humidity;BME280_pressure;Samples;Min_cycle;Max_cycle;Signal;HPM_P1;HPM_P2
2022/10/09 00:01:43;;;;;;;13.43;7.62;;;;;;;10.41;100.00;100181.20;1796126;79;21001;-76
2022/10/09 00:04:10;;;;;;;17.17;8.25;;;;;;;10.36;100.00;100183.56;1785541;80;21088;-76
2022/10/09 00:06:36;;;;;;;14.05;7.10;;;;;;;10.31;100.00;100175.09;1785756;80;21058;-74
2022/10/09 00:09:03;;;;;;;15.93;7.70;;;;;;;10.25;100.00;100168.47;1785630;80;21018;-76
2022/10/09 00:11:32;;;;;;;16.90;7.75;;;;;;;10.21;100.00;100156.28;1785656;80;21002;-75
2022/10/09 00:13:59;;;;;;;16.17;8.17;;;;;;;10.20;100.00;100153.26;1785924;80;21055;-76
2022/10/09 00:16:27;;;;;;;16.95;8.00;;;;;;;10.21;100.00;100141.94;1788098;80;21029;-76
2022/10/09 00:18:54;;;;;;;15.15;7.58;;;;;;;10.21;100.00;100141.94;1793939;80;20987;-76
2022/10/09 00:21:25;;;;;;;14.95;7.22;;;;;;;10.20;100.00;100134.86;1793790;80;21025;-75
2022/10/09 00:23:54;;;;;;;17.32;7.42;;;;;;;10.20;100.00;100124.88;1685133;85;21078;-75
2022/10/09 00:26:21;;;;;;;16.10;8.35;;;;;;;10.22;100.00;100124.20;1684948;85;21046;-76
2022/10/09 00:28:48;;;;;;;18.75;8.70;;;;;;;10.21;100.00;100113.05;1685236;85;21108;-75
2022/10/09 00:31:16;;;;;;;15.70;8.38;;;;;;;10.22;100.00;100109.34;1685230;85;21480;-75
2022/10/09 00:33:43;;;;;;;18.02;8.85;;;;;;;10.22;100.00;100108.00;1685216;85;21584;-75
2022/10/09 00:36:14;;;;;;;18.12;8.65;;;;;;;10.24;100.00;100102.42;1685143;85;21085;-75
2022/10/09 00:38:41;;;;;;;19.15;9.13;;;;;;;10.24;100.00;100099.20;1640968;87;21076;-75
2022/10/09 00:41:07;;;;;;;18.10;8.25;;;;;;;10.26;100.00;100101.75;1641170;87;21083;-75
2022/10/09 00:43:47;;;;;;;15.88;8.48;;;;;;;10.28;100.00;100098.36;1641352;87;20991;-75
2022/10/09 00:46:21;;;;;;;18.30;8.45;;;;;;;10.28;100.00;100092.96;1604881;89;21065;-76
2022/10/09 00:49:06;;;;;;;19.30;8.35;;;;;;;10.27;100.00;100098.05;1634172;88;21622;-76
2022/10/09 00:51:32;;;;;;;14.43;7.45;;;;;;;10.28;100.00;100098.88;1562874;92;21062;-75
2022/10/09 00:54:03;;;;;;;17.15;7.30;;;;;;;10.27;100.00;100095.34;1564073;92;21069;-75
2022/10/09 00:56:30;;;;;;;15.63;6.75;;;;;;;10.26;100.00;100086.37;1544060;90;21084;-76
2022/10/09 00:58:57;;;;;;;15.08;6.92;;;;;;;10.27;100.00;100089.94;1562163;92;21133;-75
2022/10/09 01:01:23;;;;;;;13.32;6.42;;;;;;;10.26;100.00;100090.42;1565596;91;21070;-76
2022/10/09 01:03:50;;;;;;;13.62;6.30;;;;;;;10.28;100.00;100083.50;1554192;92;21093;-75
2022/10/09 01:06:22;;;;;;;12.85;7.00;;;;;;;10.28;100.00;100083.50;1581173;91;21081;-74
2022/10/09 01:09:16;;;;;;;11.93;6.10;;;;;;;10.27;100.00;100079.12;1554308;92;21121;-76
2022/10/09 01:12:01;;;;;;;14.47;7.05;;;;;;;10.25;100.00;100074.37;1581229;91;21081;-75
2022/10/09 01:14:33;;;;;;;13.75;7.15;;;;;;;10.23;100.00;100071.00;1576314;91;21112;-76
2022/10/09 01:17:05;;;;;;;14.50;7.12;;;;;;;10.20;100.00;100073.55;1537347;92;21078;-75
2022/10/09 01:19:46;;;;;;;14.98;6.42;;;;;;;10.18;100.00;100070.66;1553829;92;21107;-75
2022/10/09 01:22:24;;;;;;;12.33;6.85;;;;;;;10.15;100.00;100071.84;1538524;93;21057;-75
2022/10/09 01:25:01;;;;;;;13.25;6.47;;;;;;;10.14;100.00;100067.95;1537119;93;21073;-75
2022/10/09 01:27:28;;;;;;;13.75;6.92;;;;;;;10.15;100.00;100064.26;1507124;92;21090;-75
2022/10/09 01:30:09;;;;;;;14.90;7.65;;;;;;;10.15;100.00;100066.96;1560703;92;21114;-75
2022/10/09 01:32:47;;;;;;;14.20;7.53;;;;;;;10.14;100.00;100075.55;1483168;96;21100;-76
2022/10/09 01:35:14;;;;;;;14.60;7.10;;;;;;;10.12;100.00;100068.13;1521999;92;21050;-76
2022/10/09 01:37:42;;;;;;;14.65;7.55;;;;;;;10.12;100.00;100079.45;1552917;92;21165;-75
2022/10/09 01:40:09;;;;;;;16.48;8.08;;;;;;;10.11;100.00;100076.39;1553001;92;21077;-75
2022/10/09 01:42:36;;;;;;;16.20;8.33;;;;;;;10.11;100.00;100075.91;1553057;92;21086;-75
2022/10/09 01:45:05;;;;;;;15.78;7.35;;;;;;;10.10;100.00;100078.25;1552712;92;21078;-75
2022/10/09 01:47:33;;;;;;;17.45;7.85;;;;;;;10.08;100.00;100073.53;1552941;92;21118;-76
2022/10/09 01:50:28;;;;;;;13.55;7.50;;;;;;;10.09;100.00;100081.95;1552831;92;21054;-76
2022/10/09 01:53:00;;;;;;;15.45;7.28;;;;;;;10.08;100.00;100070.83;1554944;92;21090;-75
2022/10/09 01:55:52;;;;;;;15.50;7.00;;;;;;;10.08;100.00;100069.48;1553342;92;21126;-75
2022/10/09 01:58:44;;;;;;;13.22;6.45;;;;;;;10.08;100.00;100070.31;1554503;91;21093;-75
2022/10/09 02:01:15;;;;;;;12.85;6.83;;;;;;;10.08;100.00;100054.62;1590827;89;21617;-76
2022/10/09 02:03:45;;;;;;;16.37;7.05;;;;;;;10.08;100.00;100060.02;1542824;91;21101;-76
2022/10/09 02:06:13;;;;;;;14.50;7.28;;;;;;;10.06;100.00;100053.95;1542670;93;21567;-75
2022/10/09 02:08:41;;;;;;;16.57;7.80;;;;;;;10.04;100.00;100058.16;1542781;93;21073;-75
2022/10/09 02:11:13;;;;;;;14.53;7.15;;;;;;;10.01;100.00;100050.39;1523472;93;21137;-76
2022/10/09 02:13:41;;;;;;;19.07;8.45;;;;;;;9.99;100.00;100051.06;1542617;93;21105;-76
2022/10/09 02:16:42;;;;;;;15.63;7.83;;;;;;;9.95;100.00;100048.37;1542573;91;21067;-75
2022/10/09 02:19:32;;;;;;;14.78;7.30;;;;;;;9.93;100.00;100046.31;1552627;92;21136;-75
2022/10/09 02:22:12;;;;;;;16.35;7.85;;;;;;;9.90;100.00;100042.62;1581813;91;21082;-75
2022/10/09 02:24:38;;;;;;;16.55;7.42;;;;;;;9.85;100.00;100039.56;1592218;89;21140;-74
2022/10/09 02:27:05;;;;;;;15.48;7.42;;;;;;;9.80;100.00;100034.65;1598074;90;21025;-75
2022/10/09 02:29:32;;;;;;;14.85;7.50;;;;;;;9.78;100.00;100035.33;1608698;89;21049;-75
2022/10/09 02:31:59;;;;;;;15.23;7.60;;;;;;;9.76;100.00;100029.25;1634343;88;21090;-75
2022/10/09 02:34:26;;;;;;;13.35;7.05;;;;;;;9.75;100.00;100030.25;1634272;88;21023;-75
2022/10/09 02:36:53;;;;;;;14.65;6.92;;;;;;;9.74;100.00;100028.58;1634059;88;21086;-76
2022/10/09 02:39:19;;;;;;;14.50;6.80;;;;;;;9.75;100.00;100024.85;1634121;88;21588;-75
2022/10/09 02:41:46;;;;;;;12.93;6.72;;;;;;;9.74;100.00;100016.91;1634260;86;21091;-75
2022/10/09 02:44:12;;;;;;;12.98;6.53;;;;;;;9.72;100.00;100017.59;1634226;88;21043;-75
2022/10/09 02:46:39;;;;;;;15.88;7.03;;;;;;;9.70;100.00;100020.45;1634296;88;21035;-75
2022/10/09 02:49:06;;;;;;;13.40;6.28;;;;;;;9.68;100.00;100016.59;1634001;88;21028;-75
2022/10/09 02:51:32;;;;;;;13.08;6.12;;;;;;;9.67;100.00;100008.14;1634366;88;21078;-74
2022/10/09 02:53:59;;;;;;;12.68;6.60;;;;;;;9.66;100.00;100009.14;1634073;88;21082;-75
2022/10/09 02:56:26;;;;;;;11.90;6.55;;;;;;;9.67;100.00;100005.44;1634313;88;21071;-76
2022/10/09 02:58:52;;;;;;;13.30;6.12;;;;;;;9.66;100.00;99998.86;1634543;88;21074;-74
2022/10/09 03:01:20;;;;;;;13.10;6.58;;;;;;;9.63;100.00;99993.30;1677839;83;21020;-76
2022/10/09 03:03:47;;;;;;;13.10;6.37;;;;;;;9.59;100.00;100000.02;1744664;82;21847;-76
2022/10/09 03:06:21;;;;;;;14.30;6.80;;;;;;;9.55;100.00;99997.83;1723902;83;21066;-76
2022/10/09 03:08:50;;;;;;;14.25;6.55;;;;;;;9.50;100.00;99997.80;1743896;82;21063;-75
2022/10/09 03:11:17;;;;;;;15.18;6.60;;;;;;;9.46;100.00;99999.66;1739838;82;21479;-76
2022/10/09 03:13:44;;;;;;;11.65;6.03;;;;;;;9.42;100.00;99990.19;1739751;82;21499;-76
2022/10/09 03:16:15;;;;;;;11.15;6.05;;;;;;;9.40;100.00;99991.73;1734369;82;20998;-75
2022/10/09 03:18:44;;;;;;;13.45;6.62;;;;;;;9.39;100.00;99990.55;1702647;84;21093;-75
2022/10/09 03:21:14;;;;;;;16.75;6.03;;;;;;;9.36;100.00;99985.47;1713597;84;21044;-75
2022/10/09 03:23:42;;;;;;;12.90;6.25;;;;;;;9.34;100.00;99982.92;1713855;84;21585;-75
2022/10/09 03:26:13;;;;;;;10.28;5.95;;;;;;;9.33;100.00;99973.16;1713747;84;21033;-76
2022/10/09 03:28:43;;;;;;;13.28;6.45;;;;;;;9.30;100.00;99966.22;1659911;86;21058;-75
2022/10/09 03:31:09;;;;;;;11.60;6.55;;;;;;;9.29;100.00;99962.33;1711792;84;21540;-75
2022/10/09 03:33:36;;;;;;;11.05;6.15;;;;;;;9.28;100.00;99962.84;1711575;84;21037;-75
2022/10/09 03:36:03;;;;;;;10.55;6.12;;;;;;;9.26;100.00;99956.78;1711802;84;21480;-76
2022/10/09 03:38:30;;;;;;;13.13;5.83;;;;;;;9.25;100.00;99954.23;1711555;84;21080;-74
2022/10/09 03:40:59;;;;;;;12.75;6.35;;;;;;;9.25;100.00;99950.19;1711763;84;21077;-75
2022/10/09 03:43:26;;;;;;;13.93;6.28;;;;;;;9.24;100.00;99945.79;1711818;84;21041;-75
2022/10/09 03:45:52;;;;;;;12.20;5.97;;;;;;;9.22;100.00;99945.12;1711969;84;21080;-75
2022/10/09 03:48:19;;;;;;;11.20;5.58;;;;;;;9.20;100.00;99933.66;1711970;84;21595;-75
2022/10/09 03:50:46;;;;;;;12.40;6.55;;;;;;;9.18;100.00;99932.98;1711647;84;21025;-75
2022/10/09 03:53:12;;;;;;;15.18;6.85;;;;;;;9.18;100.00;99935.16;1711914;84;21074;-75
2022/10/09 03:55:41;;;;;;;13.28;6.33;;;;;;;9.19;100.00;99931.47;1711597;84;21093;-75
2022/10/09 03:58:08;;;;;;;12.70;6.40;;;;;;;9.20;100.00;99936.34;1711790;84;21028;-75
2022/10/09 04:00:36;;;;;;;13.58;6.35;;;;;;;9.23;100.00;99934.68;1715024;82;21050;-76
2022/10/09 04:03:03;;;;;;;19.02;7.80;;;;;;;9.25;100.00;99929.44;1724837;83;21040;-75
2022/10/09 04:05:34;;;;;;;14.68;6.60;;;;;;;9.26;100.00;99925.75;1724698;83;21519;-75
2022/10/09 04:08:03;;;;;;;13.00;6.62;;;;;;;9.25;100.00;99928.09;1725152;83;21542;-76
2022/10/09 04:10:29;;;;;;;15.00;7.03;;;;;;;9.21;100.00;99923.22;1724873;83;21603;-76
2022/10/09 04:12:56;;;;;;;11.33;6.67;;;;;;;9.18;100.00;99919.48;1725163;83;21008;-75
2022/10/09 04:15:24;;;;;;;13.83;6.78;;;;;;;9.18;100.00;99928.93;1725199;83;21005;-75
2022/10/09 04:17:51;;;;;;;12.70;6.58;;;;;;;9.18;100.00;99924.88;1725512;82;21491;-74
2022/10/09 04:20:19;;;;;;;14.18;6.70;;;;;;;9.16;100.00;99917.47;1725263;83;21486;-76
2022/10/09 04:22:47;;;;;;;14.75;7.08;;;;;;;9.15;100.00;99915.25;1725550;83;21033;-76
2022/10/09 04:25:14;;;;;;;14.55;7.37;;;;;;;9.14;100.00;99921.67;1751509;80;21034;-75
2022/10/09 04:27:42;;;;;;;14.45;6.62;;;;;;;9.13;100.00;99919.45;1786734;80;21041;-75
2022/10/09 04:30:09;;;;;;;14.68;6.42;;;;;;;9.13;100.00;99911.36;1787803;79;20990;-76
2022/10/09 04:32:37;;;;;;;14.15;6.00;;;;;;;9.16;100.00;99918.30;1788743;79;21002;-74
2022/10/09 04:35:05;;;;;;;13.05;6.78;;;;;;;9.22;100.00;99923.53;1787198;79;21049;-76
2022/10/09 04:37:32;;;;;;;13.15;7.17;;;;;;;9.26;100.00;99923.53;1786272;80;20990;-76
2022/10/09 04:39:59;;;;;;;13.08;7.15;;;;;;;9.27;100.00;99930.12;1785449;80;21093;-75
2022/10/09 04:42:26;;;;;;;16.20;7.63;;;;;;;9.27;100.00;99925.23;1785677;80;21018;-74
2022/10/09 04:44:52;;;;;;;15.17;7.30;;;;;;;9.30;100.00;99921.70;1785421;80;21507;-76
2022/10/09 04:47:19;;;;;;;15.77;6.93;;;;;;;9.33;100.00;99919.19;1785777;80;21037;-75
2022/10/09 04:49:46;;;;;;;16.67;7.77;;;;;;;9.36;100.00;99915.30;1785663;80;21034;-75
2022/10/09 04:52:15;;;;;;;16.03;7.90;;;;;;;9.39;100.00;99917.68;1785927;80;21465;-75
2022/10/09 04:54:42;;;;;;;14.73;7.63;;;;;;;9.42;100.00;99914.14;1785862;80;21496;-76
2022/10/09 04:57:08;;;;;;;15.83;7.93;;;;;;;9.45;100.00;99909.73;1786176;80;21030;-74
2022/10/09 04:59:37;;;;;;;17.07;7.80;;;;;;;9.47;100.00;99911.79;1785816;80;21023;-74
2022/10/09 05:02:03;;;;;;;15.60;7.62;;;;;;;9.53;100.00;99904.88;1780547;80;21012;-75
2022/10/09 05:04:30;;;;;;;18.32;8.08;;;;;;;9.59;100.00;99906.05;1779407;81;21056;-74
2022/10/09 05:06:57;;;;;;;17.55;7.28;;;;;;;9.64;100.00;99898.30;1779512;81;21033;-75
2022/10/09 05:09:24;;;;;;;15.58;7.60;;;;;;;9.68;100.00;99901.84;1779451;80;21016;-74
2022/10/09 05:11:52;;;;;;;15.85;7.47;;;;;;;9.71;100.00;99897.95;1779351;81;21083;-76
2022/10/09 05:14:18;;;;;;;16.02;8.03;;;;;;;9.74;100.00;99900.33;1779272;81;21016;-79
2022/10/09 05:16:45;;;;;;;20.82;8.30;;;;;;;9.77;100.00;99901.31;1769654;81;20999;-77
2022/10/09 05:19:14;;;;;;;18.62;8.43;;;;;;;9.83;100.00;99903.87;1773418;81;21082;-77
2022/10/09 05:21:40;;;;;;;17.60;8.20;;;;;;;9.86;100.00;99903.02;1776845;80;21026;-77
2022/10/09 05:24:07;;;;;;;14.70;7.42;;;;;;;9.94;100.00;99908.08;1777031;81;21010;-76
2022/10/09 05:26:34;;;;;;;16.17;7.55;;;;;;;10.01;100.00;99905.86;1776944;80;21520;-76
2022/10/09 05:29:03;;;;;;;20.40;8.40;;;;;;;10.08;100.00;99908.73;1776722;80;21049;-76
2022/10/09 05:31:30;;;;;;;15.72;8.23;;;;;;;10.17;100.00;99910.91;1776744;80;21086;-77
2022/10/09 05:33:58;;;;;;;17.70;8.33;;;;;;;10.24;100.00;99910.05;1777177;81;21516;-77
2022/10/09 05:36:26;;;;;;;15.32;7.85;;;;;;;10.32;100.00;99911.91;1776872;80;21051;-77
2022/10/09 05:38:53;;;;;;;17.17;7.80;;;;;;;10.40;100.00;99917.82;1776728;80;21073;-78
2022/10/09 05:41:20;;;;;;;17.27;6.85;;;;;;;10.47;100.00;99913.41;1777081;80;21007;-77
2022/10/09 05:43:48;;;;;;;14.98;7.40;;;;;;;10.56;100.00;99919.12;1777254;80;21030;-77
2022/10/09 05:46:23;;;;;;;13.50;7.03;;;;;;;10.67;100.00;99916.55;1777047;81;21046;-78
2022/10/09 05:48:59;;;;;;;13.90;6.97;;;;;;;10.79;100.00;99913.79;1777064;80;21030;-79
2022/10/09 05:51:29;;;;;;;16.80;7.42;;;;;;;10.93;100.00;99910.02;1570656;90;21116;-76
2022/10/09 05:53:56;;;;;;;17.67;8.38;;;;;;;11.02;100.00;99900.84;1570565;91;21025;-77
2022/10/09 05:56:26;;;;;;;13.08;7.33;;;;;;;11.11;100.00;99901.64;1570646;91;21049;-77
2022/10/09 05:59:00;;;;;;;18.32;7.65;;;;;;;11.17;100.00;99907.19;1570674;91;21114;-77
2022/10/09 06:01:32;;;;;;;22.65;8.30;;;;;;;11.27;100.00;99896.64;1482551;95;21165;-77
2022/10/09 06:04:01;;;;;;;19.37;8.90;;;;;;;11.37;100.00;99900.80;1504163;95;21139;-78
2022/10/09 06:06:31;;;;;;;16.42;7.67;;;;;;;11.50;100.00;99898.00;1504067;95;21093;-78
2022/10/09 06:08:58;;;;;;;15.50;7.83;;;;;;;11.61;100.00;99900.80;1504192;95;21092;-77
2022/10/09 06:11:28;;;;;;;19.37;8.73;;;;;;;11.70;100.00;99895.11;1504199;95;21107;-76
2022/10/09 06:13:55;;;;;;;16.65;8.20;;;;;;;11.77;100.00;99898.81;1504347;95;21073;-77
2022/10/09 06:16:25;;;;;;;17.62;7.08;;;;;;;11.88;100.00;99891.24;1482248;95;21113;-79
2022/10/09 06:18:53;;;;;;;14.95;7.65;;;;;;;11.98;100.00;99896.45;1437898;98;21117;-75
2022/10/09 06:21:20;;;;;;;12.53;6.62;;;;;;;12.07;100.00;99897.53;1440376;100;21156;-78
2022/10/09 06:23:53;;;;;;;15.72;7.55;;;;;;;12.17;100.00;99901.87;1440363;100;21132;-78
2022/10/09 06:26:22;;;;;;;16.80;8.13;;;;;;;12.27;100.00;99899.70;1399373;100;21195;-77
2022/10/09 06:28:49;;;;;;;18.32;8.13;;;;;;;12.41;100.00;99899.39;1399386;103;21113;-77
2022/10/09 06:31:21;;;;;;;16.77;7.78;;;;;;;12.52;100.00;99897.06;1399518;103;21100;-75
2022/10/09 06:33:49;;;;;;;16.75;7.60;;;;;;;12.62;100.00;99904.07;1399151;103;21177;-77
2022/10/09 06:36:18;;;;;;;12.98;6.65;;;;;;;12.73;100.00;99914.47;1399250;103;21080;-78
2022/10/09 06:38:45;;;;;;;14.45;7.08;;;;;;;12.82;100.00;99924.67;1399151;103;21185;-77
2022/10/09 06:41:20;;;;;;;16.67;7.78;;;;;;;12.94;100.00;99926.41;1399666;103;21099;-77
2022/10/09 06:43:51;;;;;;;16.02;7.25;;;;;;;13.03;100.00;99931.55;1343227;105;21216;-77
2022/10/09 06:46:18;;;;;;;17.25;7.47;;;;;;;13.19;100.00;99939.99;1341838;107;21172;-76
2022/10/09 06:48:45;;;;;;;14.03;7.05;;;;;;;13.41;100.00;99946.84;1356671;106;21605;-78
2022/10/09 06:51:18;;;;;;;14.85;6.80;;;;;;;13.64;100.00;99948.87;1364790;104;21159;-76
2022/10/09 06:53:48;;;;;;;15.83;6.78;;;;;;;13.89;100.00;99951.73;1321327;107;21652;-76
2022/10/09 06:56:15;;;;;;;16.57;7.78;;;;;;;14.15;100.00;99957.39;1361785;105;21158;-76
2022/10/09 06:58:42;;;;;;;17.25;7.83;;;;;;;14.38;100.00;99965.31;1361736;105;21157;-75
2022/10/09 07:01:13;;;;;;;15.95;7.62;;;;;;;14.63;100.00;99970.34;1350299;105;22038;-78
2022/10/09 07:03:41;;;;;;;13.78;7.62;;;;;;;14.86;100.00;99974.14;1384834;101;21140;-76
2022/10/09 07:06:15;;;;;;;10.65;6.75;;;;;;;15.08;100.00;99974.87;1423662;101;21224;-76
2022/10/09 07:08:48;;;;;;;12.85;6.50;;;;;;;15.30;100.00;99986.50;1402639;102;21177;-78
2022/10/09 07:11:20;;;;;;;15.72;7.60;;;;;;;15.54;100.00;99978.82;1383061;104;21159;-76
2022/10/09 07:13:49;;;;;;;14.70;6.85;;;;;;;15.81;100.00;99973.47;1384682;104;21128;-78
2022/10/09 07:16:29;;;;;;;17.05;7.78;;;;;;;16.07;100.00;99980.84;1398339;102;21107;-77
2022/10/09 07:19:00;;;;;;;18.98;8.70;;;;;;;16.33;100.00;99981.39;1358255;104;21224;-78
2022/10/09 07:21:26;;;;;;;13.03;6.78;;;;;;;16.61;100.00;99989.84;1357096;106;21149;-77
2022/10/09 07:23:53;;;;;;;15.20;7.00;;;;;;;16.75;100.00;100003.82;1389641;102;21156;-77
2022/10/09 07:26:24;;;;;;;13.30;6.70;;;;;;;16.89;100.00;100019.66;1389306;102;21190;-77
2022/10/09 07:28:51;;;;;;;12.13;6.30;;;;;;;16.94;100.00;100036.78;1389270;103;21667;-77
2022/10/09 07:31:17;;;;;;;12.40;6.33;;;;;;;16.95;100.00;100040.67;1389214;103;21178;-78
2022/10/09 07:33:49;;;;;;;13.03;5.90;;;;;;;16.98;100.00;100046.22;1389113;103;21186;-78
2022/10/09 07:36:16;;;;;;;12.78;5.87;;;;;;;17.08;100.00;100049.36;1389366;103;21133;-78
2022/10/09 07:38:46;;;;;;;8.30;4.97;;;;;;;17.25;100.00;100045.66;1389229;103;21676;-78
2022/10/09 07:41:13;;;;;;;11.10;4.97;;;;;;;17.40;100.00;100052.21;1459475;97;21629;-78
2022/10/09 07:43:40;;;;;;;9.68;5.08;;;;;;;17.53;100.00;100058.15;1451981;99;21123;-78
2022/10/09 07:46:13;;;;;;;7.80;4.92;;;;;;;17.61;100.00;100056.55;1429220;100;21601;-78
2022/10/09 07:48:39;;;;;;;11.78;5.50;;;;;;;17.72;100.00;100053.13;1474727;97;21112;-79
2022/10/09 07:51:14;;;;;;;10.15;5.35;;;;;;;17.91;100.00;100059.59;1471025;98;21096;-77
2022/10/09 07:53:40;;;;;;;11.05;5.28;;;;;;;18.05;100.00;100054.05;1471105;98;21123;-76
2022/10/09 07:56:20;;;;;;;10.78;5.10;;;;;;;18.25;100.00;100058.02;1471101;98;21143;-77
2022/10/09 07:58:57;;;;;;;13.45;5.75;;;;;;;18.31;100.00;100071.67;1474749;97;21664;-76
2022/10/09 08:01:26;;;;;;;7.75;4.72;;;;;;;18.34;100.00;100071.23;1485511;95;21125;-76
2022/10/09 08:03:53;;;;;;;8.50;4.25;;;;;;;18.42;100.00;100089.28;1496902;96;21174;-76
2022/10/09 08:06:22;;;;;;;6.90;4.55;;;;;;;18.45;100.00;100088.84;1525363;94;21144;-77
2022/10/09 08:08:54;;;;;;;9.05;4.70;;;;;;;18.37;100.00;100102.25;1590279;90;21034;-77
2022/10/09 08:11:24;;;;;;;9.65;4.83;;;;;;;18.40;100.00;100108.66;1601448;90;21094;-77
2022/10/09 08:13:52;;;;;;;10.10;5.50;;;;;;;18.49;100.00;100098.28;1601639;90;21110;-77
2022/10/09 08:16:20;;;;;;;10.95;4.85;;;;;;;18.52;100.00;100098.35;1694682;83;21011;-76
2022/10/09 08:18:48;;;;;;;9.73;4.70;;;;;;;18.54;100.00;100098.45;1745831;81;21036;-78
2022/10/09 08:21:17;;;;;;;7.55;3.95;;;;;;;18.51;100.00;100103.54;1775136;81;21077;-78
2022/10/09 08:23:44;;;;;;;10.75;5.00;;;;;;;18.52;100.00;100098.35;1793171;80;21480;-77
2022/10/09 08:26:15;;;;;;;12.30;5.15;;;;;;;18.56;100.00;100098.23;1797008;80;21546;-78
2022/10/09 08:28:43;;;;;;;10.15;5.58;;;;;;;18.60;100.00;100095.35;1796847;80;21021;-77
2022/10/09 08:31:13;;;;;;;10.15;4.75;;;;;;;18.58;100.00;100094.74;1796959;80;21025;-79
2022/10/09 08:33:41;;;;;;;9.20;5.20;;;;;;;18.56;100.00;100097.70;1697746;84;21149;-77
2022/10/09 08:36:10;;;;;;;12.05;5.85;;;;;;;18.60;100.00;100094.81;1698184;84;21013;-77
2022/10/09 08:38:37;;;;;;;10.78;4.83;;;;;;;18.64;100.00;100106.70;1697915;84;21085;-78
2022/10/09 08:41:20;;;;;;;9.65;4.72;;;;;;;18.63;100.00;100103.12;1698269;84;21013;-76
2022/10/09 08:43:51;;;;;;;5.83;4.25;;;;;;;18.74;100.00;100101.03;1698200;84;21003;-78
2022/10/09 08:46:38;;;;;;;9.15;4.70;;;;;;;18.82;100.00;100098.56;1698126;84;21568;-77
2022/10/09 08:49:05;;;;;;;10.45;5.35;;;;;;;18.87;100.00;100096.53;1638484;87;21055;-77
2022/10/09 08:51:35;;;;;;;8.70;4.62;;;;;;;18.94;100.00;100093.20;1584111;89;21607;-78
2022/10/09 08:54:13;;;;;;;8.90;4.62;;;;;;;19.13;100.00;100082.58;1634301;88;21107;-77
2022/10/09 08:56:39;;;;;;;8.63;4.62;;;;;;;19.49;100.00;100073.23;1605139;89;21053;-76
2022/10/09 08:59:10;;;;;;;9.93;4.65;;;;;;;19.87;100.00;100067.52;1633877;88;21111;-78
2022/10/09 09:01:51;;;;;;;9.43;4.87;;;;;;;20.16;100.00;100070.48;1637373;88;21103;-77
2022/10/09 09:04:43;;;;;;;8.25;5.00;;;;;;;20.28;100.00;100075.47;1605186;89;21065;-77
2022/10/09 09:07:34;;;;;;;7.78;4.20;;;;;;;20.37;100.00;100071.03;1605036;89;21093;-77
2022/10/09 09:10:33;;;;;;;6.95;4.35;;;;;;;20.47;100.00;100078.99;1604625;87;21057;-76
2022/10/09 09:13:38;;;;;;;8.25;4.30;;;;;;;20.63;100.00;100079.42;1604927;89;21069;-77
2022/10/09 09:16:30;;;;;;;7.75;4.10;;;;;;;20.76;100.00;100075.06;1562196;92;21128;-77
2022/10/09 09:19:10;;;;;;;;;;;;;;;20.90;100.00;100077.05;1562747;91;21085;-75
2022/10/09 09:21:50;;;;;;;6.80;4.05;;;;;;;20.90;100.00;100081.72;1537198;92;20120;-76
2022/10/09 09:24:29;;;;;;;7.72;4.25;;;;;;;20.88;100.00;100077.83;1538926;93;21114;-77
2022/10/09 09:27:00;;;;;;;9.05;4.45;;;;;;;20.95;100.00;100082.67;1587103;90;21151;-75
2022/10/09 09:29:27;;;;;;;5.85;3.98;;;;;;;20.99;100.00;100082.48;1588908;89;21130;-76
2022/10/09 09:31:58;;;;;;;10.53;4.33;;;;;;;20.94;100.00;100086.48;1581965;91;21026;-77
2022/10/09 09:34:38;;;;;;;8.53;3.85;;;;;;;20.80;100.00;100079.55;1581798;91;21121;-77
2022/10/09 09:37:04;;;;;;;6.37;3.98;;;;;;;20.77;100.00;100080.87;1580451;91;21514;-76
2022/10/09 09:39:33;;;;;;;5.47;3.85;;;;;;;20.83;100.00;100076.33;1581564;91;21603;-78
2022/10/09 09:42:10;;;;;;;7.37;4.12;;;;;;;20.96;100.00;100068.38;1582016;91;21082;-75
2022/10/09 09:44:43;;;;;;;7.28;4.03;;;;;;;21.11;100.00;100057.75;1582036;91;21097;-77
2022/10/09 09:47:25;;;;;;;9.40;4.03;;;;;;;21.42;100.00;100053.77;1581954;91;21066;-76
2022/10/09 09:49:57;;;;;;;10.03;4.53;;;;;;;21.73;100.00;100061.30;1582061;91;21101;-77
2022/10/09 09:52:28;;;;;;;7.58;3.67;;;;;;;21.81;100.00;100066.95;1586947;89;21133;-77
2022/10/09 09:54:57;;;;;;;6.67;3.75;;;;;;;21.71;100.00;100059.34;1616278;89;21041;-76
2022/10/09 09:57:39;;;;;;;6.95;3.83;;;;;;;21.55;100.00;100060.94;1609165;89;21074;-79
2022/10/09 10:00:22;;;;;;;6.92;3.52;;;;;;;21.27;100.00;100058.10;1624197;87;21104;-78
2022/10/09 10:02:49;;;;;;;8.00;4.05;;;;;;;21.01;100.00;100052.84;1645734;87;21100;-76
2022/10/09 10:05:26;;;;;;;8.15;3.83;;;;;;;20.78;100.00;100060.55;1642432;87;21044;-78
2022/10/09 10:07:53;;;;;;;6.97;3.90;;;;;;;20.51;100.00;100062.05;1659914;86;21622;-78
2022/10/09 10:10:25;;;;;;;6.95;3.75;;;;;;;20.20;100.00;100068.11;1696221;84;21018;-78
2022/10/09 10:12:55;;;;;;;5.67;3.37;;;;;;;19.93;100.00;100064.91;1664845;86;21093;-78
2022/10/09 10:15:29;;;;;;;7.47;3.83;;;;;;;19.66;100.00;100062.48;1659734;86;21041;-77
2022/10/09 10:18:01;;;;;;;6.22;3.58;;;;;;;19.39;100.00;100052.36;1649915;87;21025;-78
2022/10/09 10:20:30;;;;;;;5.75;3.62;;;;;;;19.15;100.00;100041.25;1590455;90;21162;-78
2022/10/09 10:22:58;;;;;;;12.47;4.65;;;;;;;19.05;100.00;100034.08;1604069;89;21552;-78
2022/10/09 10:25:30;;;;;;;6.80;4.30;;;;;;;18.96;100.00;100029.42;1613919;89;21040;-79
2022/10/09 10:28:08;;;;;;;8.83;4.10;;;;;;;18.84;100.00;100030.72;1575280;91;21007;-78
2022/10/09 10:30:37;;;;;;;8.15;3.90;;;;;;;18.77;100.00;100028.55;1574691;91;21102;-78
2022/10/09 10:33:20;;;;;;;7.47;4.20;;;;;;;18.68;100.00;100022.52;1575139;91;21066;-78
2022/10/09 10:35:50;;;;;;;6.25;3.83;;;;;;;18.63;100.00;100014.64;1575178;91;21058;-77
2022/10/09 10:38:41;;;;;;;9.88;4.08;;;;;;;18.58;100.00;100013.42;1574773;91;21090;-78
2022/10/09 10:41:16;;;;;;;10.08;4.58;;;;;;;18.54;100.00;100012.20;1575088;91;21616;-76
2022/10/09 10:43:52;;;;;;;9.58;4.33;;;;;;;18.52;100.00;100000.64;1574995;91;21066;-77
2022/10/09 10:46:26;;;;;;;6.47;3.95;;;;;;;18.54;100.00;100003.16;1574778;91;21588;-77
2022/10/09 10:48:53;;;;;;;9.33;4.45;;;;;;;18.55;100.00;99993.33;1575170;91;21066;-77
2022/10/09 10:51:50;;;;;;;10.40;4.22;;;;;;;18.56;100.00;99988.71;1574760;91;21182;-78
2022/10/09 10:54:38;;;;;;;9.53;4.40;;;;;;;18.53;100.00;99979.03;1573837;91;21517;-77
2022/10/09 10:57:26;;;;;;;11.40;4.72;;;;;;;18.47;100.00;99983.19;1574889;91;21127;-78
2022/10/09 11:00:07;;;;;;;7.70;4.35;;;;;;;18.35;100.00;99978.45;1574912;91;21074;-77
2022/10/09 11:03:02;;;;;;;8.15;4.20;;;;;;;18.28;100.00;99973.58;1538754;93;21160;-78
2022/10/09 11:05:46;;;;;;;9.05;4.30;;;;;;;18.26;100.00;99972.13;1538920;93;21084;-78
2022/10/09 11:08:41;;;;;;;7.15;4.20;;;;;;;18.25;100.00;99973.18;1538967;93;21084;-78
2022/10/09 11:11:32;;;;;;;8.18;3.98;;;;;;;18.25;100.00;99972.64;1548421;92;21062;-79
2022/10/09 11:14:36;;;;;;;10.38;4.80;;;;;;;18.28;100.00;99972.20;1548718;91;21058;-78
2022/10/09 11:17:18;;;;;;;8.33;4.03;;;;;;;18.32;100.00;99972.05;1534196;92;21565;-76
2022/10/09 11:19:52;;;;;;;11.22;4.42;;;;;;;18.37;100.00;99964.02;1614819;88;21615;-78
2022/10/09 11:22:59;;;;;;;8.03;4.20;;;;;;;18.45;100.00;99967.52;1629026;88;21034;-78
2022/10/09 11:25:40;;;;;;;9.93;4.10;;;;;;;18.49;100.00;99962.75;1699784;83;21543;-78
2022/10/09 11:28:12;;;;;;;7.25;4.03;;;;;;;18.54;100.00;99964.83;1724930;83;21037;-76
2022/10/09 11:30:44;;;;;;;6.72;4.00;;;;;;;18.60;100.00;99963.37;1683601;85;21020;-79
2022/10/09 11:33:35;;;;;;;8.30;4.37;;;;;;;18.64;100.00;99952.80;1683759;85;21633;-78
2022/10/09 11:36:08;;;;;;;5.25;3.60;;;;;;;18.68;100.00;99960.03;1683554;85;21043;-76
2022/10/09 11:38:46;;;;;;;6.78;3.95;;;;;;;18.71;100.00;99966.44;1683569;84;21055;-77